Time;durP1;ratioP1;P1;durP2;ratioP2;P2;SDS_P1;SDS_P2;PMS_P1;PMS_P2;Temp;Humidity;BMP_temperature;BMP_pressure;BME280_temperature;BME280_humidity;BME280_pressure;Samples;Min_cycle;Max_cycle;Signal;HPM_P1;HPM_P2
2024/04/02 00:01:26;;;;;;;0.00;0.00;;;;;;;20.33;29.26;94039.06;10420209;28;20404;-76
2024/04/02 00:06:26;;;;;;;0.00;0.00;;;;;;;20.28;29.50;94023.75;10398131;28;20048;-77
2024/04/02 00:11:27;;;;;;;0.00;0.00;;;;;;;20.20;29.53;94002.13;10416774;28;20029;-82
2024/04/02 00:16:27;;;;;;;0.00;0.00;;;;;;;20.19;29.77;94008.72;10398874;28;20025;-76
2024/04/02 00:21:27;;;;;;;0.00;0.00;;;;;;;20.16;29.20;94012.94;10400520;28;20118;-77
2024/04/02 00:26:28;;;;;;;2.93;0.13;;;;;;;20.05;29.83;94015.41;10401900;28;20110;-75
2024/04/02 00:31:28;;;;;;;0.00;0.00;;;;;;;19.97;29.81;94022.59;10394416;28;20402;-76
2024/04/02 00:36:28;;;;;;;0.00;0.00;;;;;;;19.89;30.06;94020.06;10390678;28;20033;-76
2024/04/02 00:41:28;;;;;;;0.00;0.00;;;;;;;19.85;30.09;94030.84;10398895;28;20296;-75
2024/04/02 00:46:29;;;;;;;0.00;0.00;;;;;;;19.83;30.49;94024.16;10395113;28;21213;-75
2024/04/02 00:51:29;;;;;;;0.00;0.00;;;;;;;19.77;30.27;94018.13;10399979;28;20267;-77
2024/04/02 00:56:30;;;;;;;3.93;0.10;;;;;;;19.84;30.34;94014.84;10389489;28;20034;-77
2024/04/02 01:01:30;;;;;;;0.00;0.00;;;;;;;19.90;29.05;93997.88;10395255;28;20287;-79
2024/04/02 01:06:31;;;;;;;0.00;0.00;;;;;;;19.98;29.93;93986.00;10395701;28;20124;-78
2024/04/02 01:11:34;;;;;;;0.00;0.00;;;;;;;20.03;29.69;93986.91;10404141;28;20286;-76
2024/04/02 01:16:42;;;;;;;0.00;0.00;;;;;;;19.95;30.10;93992.19;10395503;28;20381;-75
2024/04/02 01:21:42;;;;;;;0.00;0.00;;;;;;;19.85;30.55;93991.91;10395860;28;20049;-80
2024/04/02 01:26:42;;;;;;;0.00;0.00;;;;;;;19.79;30.16;94002.25;10416364;28;20490;-81
2024/04/02 01:31:43;;;;;;;0.00;0.00;;;;;;;19.91;29.24;93985.03;10389288;28;20427;-77
2024/04/02 01:36:44;;;;;;;0.00;0.00;;;;;;;20.38;27.85;93991.63;10390374;28;20349;-80
2024/04/02 01:41:47;;;;;;;5.47;0.08;;;;;;;20.68;27.23;93997.44;10424011;28;20132;-76
2024/04/02 01:46:48;;;;;;;0.00;0.00;;;;;;;20.91;26.99;93988.56;10422430;28;20025;-74
2024/04/02 01:51:49;;;;;;;0.00;0.00;;;;;;;21.08;26.91;93985.41;10422508;28;20496;-76
2024/04/02 01:56:58;;;;;;;0.00;0.00;;;;;;;21.11;26.79;93967.50;10426005;28;20033;-81
2024/04/02 02:02:01;;;;;;;0.00;0.00;;;;;;;21.21;26.75;93947.00;10427483;28;20033;-80
2024/04/02 02:07:01;;;;;;;4.90;0.00;;;;;;;21.37;26.11;93949.69;10406194;28;20130;-80
2024/04/02 02:12:01;;;;;;;0.03;0.00;;;;;;;21.44;26.46;93936.13;10423605;28;20541;-78
2024/04/02 02:17:02;;;;;;;0.00;0.00;;;;;;;21.26;26.56;93925.63;10426932;28;20594;-77
2024/04/02 02:22:03;;;;;;;0.00;0.00;;;;;;;21.16;27.72;93931.69;10422019;28;20060;-77
2024/04/02 02:27:06;;;;;;;0.00;0.00;;;;;;;20.99;26.98;93906.41;10422112;28;20033;-81
2024/04/02 02:32:08;;;;;;;0.00;0.00;;;;;;;20.99;27.61;93900.16;10440573;28;20041;-73
2024/04/02 02:37:08;;;;;;;0.10;0.00;;;;;;;20.77;27.91;93899.69;10422031;28;20029;-76
2024/04/02 02:42:08;;;;;;;0.00;0.00;;;;;;;20.56;28.32;93901.97;10426221;28;20037;-76
2024/04/02 02:47:09;;;;;;;0.00;0.00;;;;;;;20.36;29.11;93912.03;10421293;28;20482;-77
2024/04/02 02:52:13;;;;;;;0.00;0.00;;;;;;;20.13;28.87;93877.22;10425974;28;20028;-80
2024/04/02 02:57:14;;;;;;;0.00;0.00;;;;;;;20.08;28.34;93885.69;10428527;28;20086;-74
2024/04/02 03:02:14;;;;;;;0.00;0.00;;;;;;;20.17;28.75;93883.56;10428293;28;20033;-76
2024/04/02 03:07:18;;;;;;;0.00;0.00;;;;;;;20.08;28.30;93883.78;10457929;28;20032;-72
2024/04/02 03:12:25;;;;;;;0.00;0.00;;;;;;;20.42;27.03;93905.16;10423742;28;20044;-76
2024/04/02 03:17:25;;;;;;;0.00;0.00;;;;;;;20.66;26.87;93887.75;10425091;28;20044;-78
2024/04/02 03:22:25;;;;;;;0.00;0.00;;;;;;;20.83;26.54;93889.28;10453057;28;20045;-77
2024/04/02 03:27:26;;;;;;;0.00;0.00;;;;;;;20.98;26.22;93888.41;10435555;28;20264;-74
2024/04/02 03:32:26;;;;;;;0.00;0.00;;;;;;;21.25;26.39;93887.75;10427809;28;20558;-76
2024/04/02 03:37:29;;;;;;;0.00;0.00;;;;;;;21.21;26.30;93881.44;10427765;28;20037;-77
2024/04/02 03:42:29;;;;;;;0.00;0.00;;;;;;;21.23;26.15;93904.50;10409843;28;20037;-76
2024/04/02 03:47:30;;;;;;;2.10;0.00;;;;;;;21.23;25.79;93909.19;10431674;28;20483;-75
2024/04/02 03:52:30;;;;;;;0.00;0.00;;;;;;;21.25;26.03;93912.34;10426938;28;20060;-77
2024/04/02 03:57:33;;;;;;;0.00;0.00;;;;;;;21.32;25.67;93901.53;10426864;28;20511;-83
2024/04/02 04:02:34;;;;;;;0.00;0.00;;;;;;;21.34;25.64;93934.78;10426574;28;20400;-74
2024/04/02 04:07:35;;;;;;;0.00;0.00;;;;;;;21.28;26.44;93920.63;10426493;28;20033;-81
2024/04/02 04:12:36;;;;;;;0.00;0.00;;;;;;;21.23;27.06;93939.25;10430141;28;20024;-79
2024/04/02 04:17:36;;;;;;;0.00;0.00;;;;;;;21.00;27.03;93946.22;10426215;28;20041;-75
2024/04/02 04:22:38;;;;;;;0.00;0.00;;;;;;;20.84;28.08;93961.88;10442870;28;20076;-81
2024/04/02 04:27:39;;;;;;;3.20;0.00;;;;;;;20.77;27.44;93948.06;10441787;28;20267;-78
2024/04/02 04:32:42;;;;;;;0.00;0.00;;;;;;;20.73;27.65;93980.75;10403052;28;20052;-75
2024/04/02 04:37:43;;;;;;;0.00;0.00;;;;;;;20.73;27.70;93972.56;10417412;28;20616;-82
2024/04/02 04:42:43;;;;;;;2.50;0.00;;;;;;;20.78;28.01;93985.16;10424159;28;20025;-82
2024/04/02 04:47:43;;;;;;;0.00;0.00;;;;;;;20.80;27.86;93980.91;10426446;28;20021;-80
2024/04/02 04:52:44;;;;;;;0.00;0.00;;;;;;;20.73;28.04;93985.44;10424269;28;20271;-77
2024/04/02 04:57:44;;;;;;;0.00;0.00;;;;;;;20.63;29.06;93982.06;10427316;28;20275;-75
2024/04/02 05:02:45;;;;;;;0.00;0.00;;;;;;;20.51;29.31;93976.72;10403311;28;20028;-75
2024/04/02 05:08:17;;;;;;;0.00;0.00;;;;;;;20.49;28.83;93998.91;10440155;28;20032;-74
2024/04/02 05:13:18;;;;;;;0.00;0.00;;;;;;;20.42;29.39;94009.66;10418806;28;20270;-76
2024/04/02 05:18:19;;;;;;;0.00;0.00;;;;;;;20.42;28.94;93993.28;10419479;28;20021;-78
2024/04/02 05:23:21;;;;;;;0.00;0.00;;;;;;;20.34;29.30;94009.84;10418665;28;20443;-83
2024/04/02 05:28:23;;;;;;;0.00;0.00;;;;;;;20.37;29.33;94009.16;10420710;28;20044;-81
2024/04/02 05:33:23;;;;;;;0.00;0.00;;;;;;;20.32;29.46;94008.25;10392210;28;20037;-77
2024/04/02 05:38:26;;;;;;;0.75;0.00;;;;;;;20.32;29.68;94011.00;10423335;28;20024;-83
2024/04/02 05:43:27;;;;;;;0.00;0.00;;;;;;;20.31;29.99;94020.31;10421590;28;20049;-76
2024/04/02 05:48:30;;;;;;;0.00;0.00;;;;;;;20.18;30.18;94027.03;10442250;28;20450;-83
2024/04/02 05:53:30;;;;;;;0.00;0.00;;;;;;;20.09;30.38;94024.47;10405604;28;20028;-76
2024/04/02 05:58:30;;;;;;;0.00;0.00;;;;;;;20.09;30.56;94034.56;10421727;28;20025;-76
2024/04/02 06:03:31;;;;;;;0.00;0.00;;;;;;;20.16;30.69;94034.75;10439949;28;20649;-77
2024/04/02 06:08:31;;;;;;;0.00;0.00;;;;;;;20.19;30.21;94049.63;10410911;28;20497;-77
2024/04/02 06:13:32;;;;;;;0.00;0.00;;;;;;;20.35;30.93;94044.19;10404766;28;20024;-82
2024/04/02 06:18:33;;;;;;;0.00;0.00;;;;;;;20.34;30.58;94050.78;10440666;28;20025;-76
2024/04/02 06:23:33;;;;;;;0.05;0.00;;;;;;;20.31;31.53;94047.59;10422849;28;20582;-81
2024/04/02 06:28:34;;;;;;;0.00;0.00;;;;;;;20.42;32.26;94064.25;10424692;28;20067;-75
2024/04/02 06:33:34;;;;;;;0.23;0.00;;;;;;;20.70;32.31;94068.06;10419097;28;20060;-80
2024/04/02 06:38:35;;;;;;;0.00;0.00;;;;;;;20.94;31.34;94067.84;10408772;28;20033;-77
2024/04/02 06:43:35;;;;;;;0.00;0.00;;;;;;;20.91;32.81;94101.31;10429022;28;20032;-78
2024/04/02 06:48:35;;;;;;;0.00;0.00;;;;;;;20.89;33.45;94102.81;10431214;28;20319;-76
2024/04/02 06:53:36;;;;;;;0.00;0.00;;;;;;;20.77;34.98;94104.50;10447704;28;20313;-74
2024/04/02 06:58:39;;;;;;;0.00;0.00;;;;;;;20.45;36.96;94111.88;10428847;28;20025;-80
2024/04/02 07:03:40;;;;;;;0.00;0.00;;;;;;;20.39;35.48;94116.81;10429542;28;20024;-77
2024/04/02 07:08:41;;;;;;;0.00;0.00;;;;;;;20.99;34.72;94124.94;10428893;28;20310;-77
2024/04/02 07:13:41;;;;;;;0.00;0.00;;;;;;;21.04;35.02;94132.06;10427497;28;20419;-75
2024/04/02 07:18:42;;;;;;;0.00;0.00;;;;;;;21.38;36.44;94131.63;10428037;28;20029;-79
2024/04/02 07:23:42;;;;;;;0.00;0.00;;;;;;;22.85;36.22;94122.78;10428058;28;20466;-80
2024/04/02 07:28:44;;;;;;;0.00;0.00;;;;;;;22.74;36.18;94127.28;10427218;28;20041;-76
2024/04/02 07:33:45;;;;;;;0.00;0.00;;;;;;;23.93;36.22;94132.59;10429462;28;20271;-79
2024/04/02 07:38:46;;;;;;;0.00;0.00;;;;;;;25.41;32.97;94125.75;10425747;28;20577;-75
2024/04/02 07:43:46;;;;;;;0.00;0.00;;;;;;;27.31;31.07;94121.16;10426825;28;20056;-76
2024/04/02 07:48:47;;;;;;;0.00;0.00;;;;;;;27.35;30.11;94114.50;10427348;28;20017;-76
2024/04/02 07:53:47;;;;;;;0.00;0.00;;;;;;;28.21;30.30;94126.50;10429196;28;20028;-75
2024/04/02 07:58:47;;;;;;;0.00;0.00;;;;;;;26.18;32.74;94131.28;10426530;28;20025;-76
2024/04/02 08:03:48;;;;;;;0.00;0.00;;;;;;;25.81;33.50;94126.75;10428254;28;20147;-82
2024/04/02 08:08:51;;;;;;;0.00;0.00;;;;;;;24.99;34.14;94141.53;10445328;28;20040;-77
2024/04/02 08:13:51;;;;;;;0.00;0.00;;;;;;;26.38;33.27;94130.94;10425051;28;20362;-76
2024/04/02 08:18:52;;;;;;;0.27;0.00;;;;;;;24.64;34.92;94142.00;10425603;28;20490;-78
2024/04/02 08:23:52;;;;;;;1.10;0.10;;;;;;;24.18;35.25;94123.84;10426009;28;20053;-76
2024/04/02 08:28:52;;;;;;;0.10;0.00;;;;;;;24.29;34.83;94143.19;10427418;28;20033;-78
2024/04/02 08:33:53;;;;;;;0.00;0.00;;;;;;;25.12;35.54;94133.78;10414922;28;20275;-76
2024/04/02 08:38:53;;;;;;;0.00;0.00;;;;;;;26.44;32.43;94118.34;10428645;28;20036;-77
2024/04/02 08:43:57;;;;;;;0.00;0.00;;;;;;;27.62;30.61;94114.84;10430865;28;20029;-77
2024/04/02 08:48:58;;;;;;;0.90;0.00;;;;;;;27.48;25.58;94114.06;10424571;28;20279;-76
2024/04/02 08:53:59;;;;;;;0.70;0.00;;;;;;;26.42;29.01;94117.97;10424809;28;20029;-75
2024/04/02 08:58:59;;;;;;;0.00;0.00;;;;;;;25.24;29.12;94094.16;10423857;28;20564;-75
2024/04/02 09:04:02;;;;;;;0.00;0.00;;;;;;;25.06;30.79;94102.28;10424578;28;20041;-77
2024/04/02 09:09:06;;;;;;;0.00;0.00;;;;;;;24.62;30.11;94111.38;10445399;28;20029;-74
2024/04/02 09:14:06;;;;;;;0.43;0.00;;;;;;;25.07;27.37;94115.66;10388580;28;20415;-76
2024/04/02 09:19:06;;;;;;;0.00;0.00;;;;;;;26.25;25.44;94103.75;10424537;28;20035;-80
2024/04/02 09:24:08;;;;;;;0.00;0.00;;;;;;;26.36;24.86;94109.28;10426196;28;20291;-79
2024/04/02 09:29:08;;;;;;;0.00;0.00;;;;;;;25.58;26.08;94105.81;10407134;28;20808;-76
2024/04/02 09:34:09;;;;;;;0.00;0.00;;;;;;;25.19;26.83;94108.31;10406477;28;20025;-76
2024/04/02 09:39:15;;;;;;;0.00;0.00;;;;;;;24.82;25.87;94103.69;10423068;28;20025;-75
2024/04/02 09:44:18;;;;;;;0.00;0.00;;;;;;;25.79;28.29;94101.59;10421932;28;20072;-77
2024/04/02 09:49:20;;;;;;;7.00;6.40;;;;;;;26.36;24.78;94117.56;10422660;28;20108;-74
2024/04/02 09:54:21;;;;;;;1.20;1.20;;;;;;;27.49;26.41;94110.94;10422465;28;20063;-76
2024/04/02 09:59:21;;;;;;;1.10;0.90;;;;;;;28.64;24.09;94104.97;10422999;28;20415;-77
2024/04/02 10:04:22;;;;;;;0.30;0.30;;;;;;;28.60;24.32;94118.00;10421255;28;19909;-77
2024/04/02 10:09:24;;;;;;;2.90;2.70;;;;;;;27.84;22.91;94113.97;10422882;28;20431;-76
2024/04/02 10:14:26;;;;;;;2.45;2.35;;;;;;;27.26;23.33;94114.88;10439265;28;20241;-78
2024/04/02 10:19:29;;;;;;;4.28;4.13;;;;;;;26.03;23.15;94118.63;10424130;28;19920;-79
2024/04/02 10:24:30;;;;;;;0.10;0.10;;;;;;;26.61;23.87;94122.31;10442903;28;19928;-80
2024/04/02 10:29:34;;;;;;;2.55;2.10;;;;;;;28.99;22.04;94105.09;10405354;28;20057;-77
2024/04/02 10:34:34;;;;;;;6.03;0.08;;;;;;;27.49;22.74;94102.66;10405570;28;20240;-75
2024/04/02 10:39:34;;;;;;;;;;;;;;;27.70;23.13;94088.00;10421487;28;20028;-77
2024/04/02 10:44:35;;;;;;;0.00;0.00;;;;;;;31.02;20.72;94084.94;10422229;28;20309;-81
2024/04/02 10:49:37;;;;;;;5.00;3.30;;;;;;;34.04;17.58;94079.59;10422665;28;20003;-77
2024/04/02 10:54:37;;;;;;;2.05;1.35;;;;;;;35.22;14.84;94064.06;10421481;28;19912;-77
2024/04/02 10:59:43;;;;;;;6.30;0.00;;;;;;;37.02;14.19;94056.75;10420801;28;20035;-75
2024/04/02 11:04:43;;;;;;;16.83;8.47;;;;;;;37.04;14.39;94047.91;10417539;28;20426;-77
2024/04/02 11:09:44;;;;;;;76.82;31.35;;;;;;;36.50;14.76;94059.16;10420919;28;20033;-77
2024/04/02 11:14:55;;;;;;;60.93;29.57;;;;;;;36.12;14.41;94045.41;10439883;28;20025;-82
2024/04/02 11:19:56;;;;;;;93.35;35.00;;;;;;;36.05;14.04;94047.22;10433958;28;20037;-75
2024/04/02 11:25:13;;;;;;;105.90;37.10;;;;;;;33.86;14.61;94055.00;10431615;28;20052;-74
2024/04/02 11:30:22;;;;;;;1.63;1.30;;;;;;;30.93;16.67;94065.25;10426527;28;20037;-81
2024/04/02 11:35:22;;;;;;;3.58;1.65;;;;;;;29.03;18.16;94045.00;10403863;28;20124;-77
2024/04/02 11:40:27;;;;;;;1.95;0.10;;;;;;;27.05;19.52;94049.47;10427786;28;20017;-81
2024/04/02 11:45:28;;;;;;;4.47;0.32;;;;;;;26.30;20.65;94050.22;10427583;28;20137;-78
2024/04/02 11:50:28;;;;;;;20.35;10.60;;;;;;;25.57;21.27;94045.66;10410480;28;20044;-78
2024/04/02 11:55:28;;;;;;;119.90;35.67;;;;;;;24.99;20.12;94041.78;10427918;28;20021;-83
2024/04/02 12:00:29;;;;;;;20.30;11.90;;;;;;;25.08;23.09;94053.22;10425542;28;20276;-77
2024/04/02 12:05:30;;;;;;;50.67;23.05;;;;;;;24.78;22.57;94056.94;10425268;28;20271;-77
2024/04/02 12:10:31;;;;;;;28.85;15.10;;;;;;;23.97;22.33;94053.81;10444007;28;20106;-78
2024/04/02 12:15:31;;;;;;;0.90;0.20;;;;;;;23.46;22.86;94054.38;10425671;28;20021;-77
2024/04/02 12:20:31;;;;;;;3.60;3.33;;;;;;;23.47;22.06;94062.22;10426917;28;20431;-81
2024/04/02 12:25:34;;;;;;;55.60;26.67;;;;;;;23.47;21.89;94047.72;10442549;28;20292;-80
2024/04/02 12:30:36;;;;;;;71.13;29.88;;;;;;;23.37;21.21;94058.19;10426677;28;20264;-80
2024/04/02 12:35:36;;;;;;;327.88;57.90;;;;;;;23.23;21.46;94049.75;10426227;28;20075;-82
2024/04/02 12:40:36;;;;;;;372.90;62.05;;;;;;;23.44;22.96;94051.19;10424522;28;20033;-77
2024/04/02 12:45:37;;;;;;;336.67;58.57;;;;;;;23.71;23.73;94049.97;10425368;28;20075;-76
2024/04/02 12:50:37;;;;;;;354.20;60.40;;;;;;;23.63;23.67;94048.31;10407810;28;20045;-83
2024/04/02 12:55:39;;;;;;;333.10;58.67;;;;;;;23.69;23.46;94040.53;10393613;28;20283;-82
2024/04/02 13:00:40;;;;;;;428.95;67.13;;;;;;;23.46;23.03;94044.19;10423571;28;20286;-76
2024/04/02 13:05:41;;;;;;;423.08;66.55;;;;;;;23.14;24.53;94044.56;10424193;28;20032;-79
2024/04/02 13:10:48;;;;;;;326.88;57.72;;;;;;;23.15;25.24;94048.06;10443227;28;20067;-81
2024/04/02 13:15:48;;;;;;;403.48;64.40;;;;;;;23.00;23.90;94036.88;10423727;28;20102;-75
2024/04/02 13:20:52;;;;;;;365.90;60.93;;;;;;;22.61;25.22;94026.13;10407338;28;20109;-75
2024/04/02 13:26:11;;;;;;;355.55;59.63;;;;;;;22.32;24.90;94047.53;10423322;28;20049;-76
2024/04/02 13:31:11;;;;;;;411.00;64.32;;;;;;;22.26;25.59;94037.28;10425294;28;20063;-76
2024/04/02 13:36:14;;;;;;;432.70;65.93;;;;;;;22.19;24.76;94035.19;10426617;28;20543;-75
2024/04/02 13:41:17;;;;;;;448.92;67.85;;;;;;;22.32;24.54;94022.91;10439519;28;20029;-77
2024/04/02 13:46:18;;;;;;;453.95;67.82;;;;;;;22.09;23.54;94027.56;10430644;28;20404;-82
2024/04/02 13:51:20;;;;;;;371.33;61.17;;;;;;;22.16;24.02;94022.25;10431338;28;20028;-77
2024/04/02 13:56:22;;;;;;;413.63;64.72;;;;;;;22.13;23.27;94022.97;10429086;28;20041;-81
2024/04/02 14:01:27;;;;;;;397.60;63.20;;;;;;;22.11;24.44;94030.75;10419823;28;20029;-82
2024/04/02 14:06:29;;;;;;;347.05;58.53;;;;;;;21.97;24.99;94021.13;10409877;28;20033;-82
2024/04/02 14:11:29;;;;;;;330.85;57.45;;;;;;;21.97;25.09;94029.34;10404636;28;20068;-81
2024/04/02 14:16:30;;;;;;;288.40;53.47;;;;;;;21.99;24.89;94024.31;10421862;28;20119;-82
2024/04/02 14:21:30;;;;;;;302.20;55.10;;;;;;;22.11;24.11;94025.28;10405256;28;20271;-75
2024/04/02 14:26:30;;;;;;;278.30;53.07;;;;;;;21.94;22.97;94018.34;10419891;28;20294;-78
2024/04/02 14:31:31;;;;;;;171.55;38.78;;;;;;;21.67;23.60;94016.28;10411422;28;20029;-80
2024/04/02 14:36:31;;;;;;;6.28;4.80;;;;;;;21.61;23.52;94023.19;10420857;28;20029;-77
2024/04/02 14:41:32;;;;;;;23.65;16.08;;;;;;;21.67;24.55;94020.94;10439178;28;20491;-76
2024/04/02 14:46:33;;;;;;;33.07;17.97;;;;;;;21.56;24.56;94020.75;10437651;28;20423;-76
2024/04/02 14:51:37;;;;;;;61.83;27.73;;;;;;;21.20;24.89;94021.97;10402250;28;20348;-80
2024/04/02 14:56:38;;;;;;;72.47;30.05;;;;;;;21.05;24.81;94018.13;10430554;28;20029;-77
2024/04/02 15:01:38;;;;;;;217.93;47.07;;;;;;;20.79;25.61;94019.50;10411979;28;20022;-77
2024/04/02 15:06:58;;;;;;;278.23;52.20;;;;;;;20.38;25.57;94030.63;10430009;28;20268;-81
2024/04/02 15:11:58;;;;;;;268.77;51.42;;;;;;;20.27;25.32;94035.81;10429069;28;20482;-82
2024/04/02 15:16:58;;;;;;;326.83;55.90;;;;;;;20.23;25.99;94045.06;10426323;28;20036;-83
2024/04/02 15:21:59;;;;;;;225.67;46.90;;;;;;;20.14;25.45;94042.50;10416601;28;20320;-78
2024/04/02 15:27:01;;;;;;;217.03;46.20;;;;;;;20.05;25.77;94048.13;10428233;28;20306;-79
2024/04/02 15:32:02;;;;;;;120.78;35.70;;;;;;;19.97;25.86;94055.34;10411738;28;20868;-77
2024/04/02 15:37:02;;;;;;;106.70;34.70;;;;;;;19.93;26.46;94056.38;10426222;28;20116;-77
2024/04/02 15:42:03;;;;;;;112.78;35.78;;;;;;;19.87;26.70;94074.94;10426644;28;20037;-77
2024/04/02 15:47:04;;;;;;;159.07;40.90;;;;;;;19.87;27.22;94074.94;10445554;28;20024;-75
2024/04/02 15:52:04;;;;;;;140.68;39.55;;;;;;;19.87;27.44;94074.13;10444086;28;20392;-73
2024/04/02 15:57:04;;;;;;;164.85;42.05;;;;;;;19.84;27.93;94085.75;10444938;28;20505;-82
2024/04/02 16:02:08;;;;;;;138.82;39.13;;;;;;;19.79;29.03;94105.84;10409396;28;20025;-75
2024/04/02 16:07:08;;;;;;;151.60;40.03;;;;;;;19.45;30.33;94124.34;10447674;28;20503;-80
2024/04/02 16:12:09;;;;;;;174.63;42.55;;;;;;;19.26;31.16;94152.22;10427689;28;20032;-75
2024/04/02 16:17:09;;;;;;;206.73;45.07;;;;;;;18.83;31.64;94173.41;10426793;28;20218;-76
2024/04/02 16:22:11;;;;;;;128.80;34.92;;;;;;;18.09;33.05;94178.69;10450298;28;20386;-76
2024/04/02 16:27:11;;;;;;;127.18;35.33;;;;;;;17.23;34.88;94204.25;10430025;28;20021;-77
2024/04/02 16:32:13;;;;;;;181.27;42.27;;;;;;;17.53;35.13;94230.59;10426704;28;20520;-82
2024/04/02 16:37:13;;;;;;;191.48;43.22;;;;;;;16.98;35.67;94251.31;10424652;28;20345;-76
2024/04/02 16:42:15;;;;;;;119.57;35.42;;;;;;;16.56;36.37;94263.56;10442525;28;20078;-76
2024/04/02 16:47:16;;;;;;;62.80;26.60;;;;;;;16.47;36.68;94270.91;10410252;28;20424;-76
2024/04/02 16:52:16;;;;;;;68.22;25.63;;;;;;;16.33;37.70;94291.97;10415787;28;20044;-77
2024/04/02 16:57:17;;;;;;;42.80;17.80;;;;;;;16.30;37.35;94298.84;10424178;28;20562;-77
2024/04/02 17:02:17;;;;;;;6.70;6.13;;;;;;;16.14;37.74;94309.34;10424102;28;20275;-75
2024/04/02 17:07:17;;;;;;;7.27;6.53;;;;;;;16.02;38.75;94317.34;10424305;28;20264;-79
2024/04/02 17:12:17;;;;;;;11.43;8.30;;;;;;;16.21;38.30;94323.25;10425313;28;20863;-82
2024/04/02 17:17:19;;;;;;;8.20;7.47;;;;;;;16.03;39.31;94341.41;10426626;28;20499;-79
2024/04/02 17:22:24;;;;;;;3.40;3.20;;;;;;;15.89;38.91;94363.25;10400450;28;20682;-80
2024/04/02 17:27:25;;;;;;;1.05;0.90;;;;;;;15.86;39.75;94377.41;10362302;28;20038;-78
2024/04/02 17:32:25;;;;;;;0.00;0.00;;;;;;;15.62;40.89;94394.03;10361319;28;20044;-76
2024/04/02 17:37:25;;;;;;;4.45;0.30;;;;;;;15.55;41.19;94386.34;10398298;28;20073;-79
2024/04/02 17:42:26;;;;;;;2.97;0.33;;;;;;;15.45;41.95;94397.47;10382136;28;20163;-78
2024/04/02 17:47:26;;;;;;;14.53;12.97;;;;;;;15.35;42.30;94411.31;10382940;28;20398;-77
2024/04/02 17:52:26;;;;;;;6.73;4.63;;;;;;;15.15;42.78;94418.84;10398748;28;20848;-77
2024/04/02 17:57:28;;;;;;;1.03;1.03;;;;;;;15.23;43.18;94427.31;10383848;28;20283;-81
2024/04/02 18:02:29;;;;;;;3.35;1.02;;;;;;;15.42;43.22;94443.31;10382152;28;20820;-79
2024/04/02 18:07:30;;;;;;;24.60;17.77;;;;;;;15.36;43.52;94438.06;10400710;28;20025;-81
2024/04/02 18:12:30;;;;;;;43.60;23.03;;;;;;;15.28;43.68;94424.47;10380383;28;20044;-76
2024/04/02 18:17:30;;;;;;;1.90;1.20;;;;;;;15.13;44.08;94431.88;10379845;28;20288;-79
2024/04/02 18:22:32;;;;;;;4.30;3.28;;;;;;;14.94;45.21;94437.47;10387107;28;20307;-78
2024/04/02 18:27:33;;;;;;;47.63;22.40;;;;;;;14.98;45.44;94446.56;10435862;28;20083;-74
2024/04/02 18:32:33;;;;;;;46.30;23.33;;;;;;;14.96;45.98;94450.69;10448560;28;20087;-78
2024/04/02 18:37:34;;;;;;;46.83;23.52;;;;;;;14.53;46.36;94462.75;10429609;28;20282;-75
2024/04/02 18:42:34;;;;;;;60.42;25.27;;;;;;;14.24;49.64;94465.81;10430236;28;20459;-77
2024/04/02 18:47:36;;;;;;;70.60;27.07;;;;;;;14.19;47.75;94470.22;10429923;28;20023;-75
2024/04/02 18:52:37;;;;;;;31.42;17.67;;;;;;;14.05;49.57;94482.97;10438343;28;20263;-76
2024/04/02 18:57:37;;;;;;;36.88;21.33;;;;;;;13.88;50.01;94486.25;10434135;28;20029;-82
2024/04/02 19:02:37;;;;;;;40.38;22.02;;;;;;;13.84;51.96;94486.06;10428903;28;20029;-75
2024/04/02 19:07:38;;;;;;;66.53;27.80;;;;;;;13.77;51.76;94507.28;10428213;28;20192;-76
2024/04/02 19:12:40;;;;;;;18.00;14.75;;;;;;;13.65;55.24;94512.34;10428875;28;20295;-82
2024/04/02 19:17:41;;;;;;;14.85;13.23;;;;;;;13.52;58.38;94515.81;10447211;28;20480;-76
2024/04/02 19:22:41;;;;;;;7.17;6.63;;;;;;;13.31;61.89;94513.44;10415095;28;20036;-75
2024/04/02 19:27:42;;;;;;;15.52;13.88;;;;;;;13.31;64.51;94526.91;10410497;28;20302;-78
2024/04/02 19:32:42;;;;;;;12.80;11.60;;;;;;;13.11;68.41;94533.47;10410974;28;20029;-81
2024/04/02 19:37:49;;;;;;;30.95;19.65;;;;;;;13.17;70.33;94540.38;10427650;28;20532;-83
2024/04/02 19:42:50;;;;;;;48.95;24.17;;;;;;;13.40;70.78;94562.19;10445847;28;20190;-81
2024/04/02 19:47:51;;;;;;;67.30;27.40;;;;;;;13.40;69.09;94562.97;10428898;28;20112;-80
2024/04/02 19:52:51;;;;;;;83.00;30.17;;;;;;;13.34;68.88;94591.91;10443073;28;20452;-79
2024/04/02 19:57:52;;;;;;;70.37;28.20;;;;;;;13.21;67.84;94591.88;10425416;28;20029;-79
2024/04/02 20:02:52;;;;;;;39.20;21.73;;;;;;;13.23;70.16;94606.69;10443080;28;20358;-77
2024/04/02 20:07:52;;;;;;;27.53;18.90;;;;;;;13.33;73.10;94608.41;10425648;28;20370;-80
2024/04/02 20:12:53;;;;;;;17.30;14.20;;;;;;;13.43;72.65;94607.47;10425519;28;20271;-77
2024/04/02 20:17:53;;;;;;;10.05;9.27;;;;;;;13.38;69.82;94597.56;10426550;28;20363;-76
2024/04/02 20:22:54;;;;;;;5.28;4.65;;;;;;;13.40;68.75;94599.97;10424172;28;20057;-74
2024/04/02 20:27:54;;;;;;;2.90;2.60;;;;;;;13.16;70.71;94590.06;10425656;28;20104;-82
2024/04/02 20:32:56;;;;;;;7.63;7.03;;;;;;;13.23;71.15;94603.16;10419785;28;20191;-77
2024/04/02 20:37:56;;;;;;;3.67;3.47;;;;;;;13.27;73.82;94587.97;10448366;28;20120;-82
2024/04/02 20:42:57;;;;;;;3.63;1.15;;;;;;;13.32;70.23;94590.59;10452736;28;20128;-77
2024/04/02 20:47:57;;;;;;;0.20;0.20;;;;;;;13.25;68.90;94598.28;10433044;28;20474;-83
2024/04/02 20:52:57;;;;;;;0.00;0.00;;;;;;;13.07;68.96;94595.28;10427218;28;20740;-76
2024/04/02 20:57:59;;;;;;;0.20;0.00;;;;;;;13.04;69.66;94592.38;10438156;28;20100;-82
2024/04/02 21:02:59;;;;;;;0.47;0.47;;;;;;;12.93;71.59;94594.41;10424349;28;20059;-77
2024/04/02 21:08:01;;;;;;;0.60;0.60;;;;;;;12.81;73.23;94595.66;10406170;28;20384;-84
2024/04/02 21:13:01;;;;;;;0.93;0.30;;;;;;;12.73;77.28;94603.59;10418398;28;20040;-82
2024/04/02 21:18:02;;;;;;;6.40;5.93;;;;;;;12.78;80.71;94606.22;10410409;28;20036;-83
2024/04/02 21:23:04;;;;;;;9.88;8.88;;;;;;;12.81;74.95;94608.34;10421756;28;20049;-81
2024/04/02 21:28:05;;;;;;;0.70;0.70;;;;;;;12.64;74.27;94606.94;10435288;28;20433;-77
2024/04/02 21:33:05;;;;;;;1.33;1.33;;;;;;;12.58;75.41;94613.47;10441069;28;20032;-76
2024/04/02 21:38:06;;;;;;;0.53;0.00;;;;;;;12.59;73.74;94619.69;10422046;28;20037;-75
2024/04/02 21:43:06;;;;;;;0.88;0.85;;;;;;;12.35;76.87;94612.41;10411095;28;20278;-77
2024/04/02 21:48:08;;;;;;;18.90;11.27;;;;;;;12.35;80.46;94623.19;10442099;28;20081;-83
2024/04/02 21:53:08;;;;;;;44.45;23.05;;;;;;;12.34;81.34;94629.66;10423115;28;20848;-79
2024/04/02 21:58:09;;;;;;;42.88;22.63;;;;;;;12.54;78.42;94639.41;10410670;28;20090;-77
2024/04/02 22:03:09;;;;;;;13.43;12.07;;;;;;;12.48;76.37;94635.16;10423457;28;20037;-77
2024/04/02 22:08:10;;;;;;;1.75;1.60;;;;;;;12.33;76.50;94638.81;10421668;28;20411;-78
2024/04/02 22:13:12;;;;;;;0.77;0.60;;;;;;;12.51;75.17;94633.78;10420779;28;20016;-77
2024/04/02 22:18:14;;;;;;;12.10;8.50;;;;;;;12.35;71.79;94647.44;10425399;28;20059;-73
2024/04/02 22:23:19;;;;;;;60.05;26.23;;;;;;;12.59;71.44;94652.03;10443488;28;20084;-83
2024/04/02 22:28:23;;;;;;;62.97;25.58;;;;;;;12.69;68.56;94657.28;10404925;28;20041;-77
2024/04/02 22:33:24;;;;;;;66.85;27.40;;;;;;;12.58;69.13;94661.19;10422146;28;20024;-78
2024/04/02 22:38:26;;;;;;;24.07;16.93;;;;;;;12.64;68.21;94660.03;10421971;28;20032;-83
2024/04/02 22:43:26;;;;;;;27.17;14.82;;;;;;;12.62;68.05;94654.16;10441284;28;20283;-83
2024/04/02 22:48:27;;;;;;;87.53;30.67;;;;;;;12.58;68.94;94645.03;10422578;28;20027;-78
2024/04/02 22:53:27;;;;;;;85.27;30.27;;;;;;;12.30;69.00;94650.19;10444448;28;20125;-78
2024/04/02 22:58:27;;;;;;;41.97;22.42;;;;;;;12.06;71.21;94664.44;10421213;28;20322;-79
2024/04/02 23:03:32;;;;;;;59.50;25.48;;;;;;;12.31;70.32;94665.28;10444798;28;20040;-80